sensor_id;sensor_type;location;lat;lon;timestamp;P1;durP1;ratioP1;P2;durP2;ratioP2
69047;SDS011;56119;50.118;8.642;2023-05-07T00:00:22;5.55;;;2.30;;
69047;SDS011;56119;50.118;8.642;2023-05-07T00:02:49;4.53;;;2.20;;
69047;SDS011;56119;50.118;8.642;2023-05-07T00:05:15;3.70;;;2.17;;
69047;SDS011;56119;50.118;8.642;2023-05-07T00:07:41;3.90;;;2.40;;
69047;SDS011;56119;50.118;8.642;2023-05-07T00:10:07;2.97;;;1.67;;
69047;SDS011;56119;50.118;8.642;2023-05-07T00:12:33;5.50;;;2.30;;
69047;SDS011;56119;50.118;8.642;2023-05-07T00:15:01;4.45;;;2.25;;
69047;SDS011;56119;50.118;8.642;2023-05-07T00:17:27;3.40;;;2.00;;
69047;SDS011;56119;50.118;8.642;2023-05-07T00:19:53;2.85;;;2.08;;
69047;SDS011;56119;50.118;8.642;2023-05-07T00:22:19;3.53;;;2.58;;
69047;SDS011;56119;50.118;8.642;2023-05-07T00:24:46;4.32;;;2.15;;
69047;SDS011;56119;50.118;8.642;2023-05-07T00:27:12;4.72;;;2.67;;
69047;SDS011;56119;50.118;8.642;2023-05-07T00:29:38;3.88;;;2.28;;
69047;SDS011;56119;50.118;8.642;2023-05-07T00:32:04;3.50;;;2.28;;
69047;SDS011;56119;50.118;8.642;2023-05-07T00:34:30;5.72;;;2.25;;
69047;SDS011;56119;50.118;8.642;2023-05-07T00:36:56;4.53;;;2.13;;
69047;SDS011;56119;50.118;8.642;2023-05-07T00:39:22;4.65;;;2.47;;
69047;SDS011;56119;50.118;8.642;2023-05-07T00:41:48;4.10;;;2.40;;
69047;SDS011;56119;50.118;8.642;2023-05-07T00:44:14;3.42;;;2.17;;
69047;SDS011;56119;50.118;8.642;2023-05-07T00:46:40;4.10;;;2.50;;
69047;SDS011;56119;50.118;8.642;2023-05-07T00:49:06;4.95;;;2.88;;
69047;SDS011;56119;50.118;8.642;2023-05-07T00:51:32;3.72;;;2.40;;
69047;SDS011;56119;50.118;8.642;2023-05-07T00:53:59;4.07;;;2.58;;
69047;SDS011;56119;50.118;8.642;2023-05-07T00:56:25;3.33;;;2.30;;
69047;SDS011;56119;50.118;8.642;2023-05-07T00:58:52;3.25;;;2.45;;
69047;SDS011;56119;50.118;8.642;2023-05-07T01:01:18;3.30;;;2.53;;
69047;SDS011;56119;50.118;8.642;2023-05-07T01:03:44;4.18;;;2.75;;
69047;SDS011;56119;50.118;8.642;2023-05-07T01:06:10;3.97;;;2.30;;
69047;SDS011;56119;50.118;8.642;2023-05-07T01:08:38;5.82;;;2.67;;
69047;SDS011;56119;50.118;8.642;2023-05-07T01:11:05;4.22;;;2.22;;
69047;SDS011;56119;50.118;8.642;2023-05-07T01:13:31;4.10;;;2.40;;
69047;SDS011;56119;50.118;8.642;2023-05-07T01:15:57;2.67;;;2.35;;
69047;SDS011;56119;50.118;8.642;2023-05-07T01:18:23;3.75;;;2.30;;
69047;SDS011;56119;50.118;8.642;2023-05-07T01:20:51;3.35;;;2.22;;
69047;SDS011;56119;50.118;8.642;2023-05-07T01:23:17;3.38;;;2.20;;
69047;SDS011;56119;50.118;8.642;2023-05-07T01:25:50;4.63;;;2.85;;
69047;SDS011;56119;50.118;8.642;2023-05-07T01:28:16;5.28;;;2.78;;
69047;SDS011;56119;50.118;8.642;2023-05-07T01:30:42;4.20;;;1.90;;
69047;SDS011;56119;50.118;8.642;2023-05-07T01:33:11;3.20;;;2.22;;
69047;SDS011;56119;50.118;8.642;2023-05-07T01:35:40;3.20;;;2.30;;
69047;SDS011;56119;50.118;8.642;2023-05-07T01:38:07;4.22;;;2.80;;
69047;SDS011;56119;50.118;8.642;2023-05-07T01:40:34;5.75;;;2.72;;
69047;SDS011;56119;50.118;8.642;2023-05-07T01:43:00;3.00;;;2.53;;
69047;SDS011;56119;50.118;8.642;2023-05-07T01:45:27;3.90;;;2.65;;
69047;SDS011;56119;50.118;8.642;2023-05-07T01:47:53;3.58;;;2.78;;
69047;SDS011;56119;50.118;8.642;2023-05-07T01:50:20;3.28;;;2.72;;
69047;SDS011;56119;50.118;8.642;2023-05-07T01:52:46;4.10;;;2.63;;
69047;SDS011;56119;50.118;8.642;2023-05-07T01:55:12;4.28;;;2.83;;
69047;SDS011;56119;50.118;8.642;2023-05-07T01:57:39;3.17;;;2.40;;
69047;SDS011;56119;50.118;8.642;2023-05-07T02:00:05;4.03;;;2.72;;
69047;SDS011;56119;50.118;8.642;2023-05-07T02:02:31;5.68;;;3.05;;
69047;SDS011;56119;50.118;8.642;2023-05-07T02:04:58;3.58;;;2.47;;
69047;SDS011;56119;50.118;8.642;2023-05-07T02:07:24;4.55;;;2.95;;
69047;SDS011;56119;50.118;8.642;2023-05-07T02:09:50;3.90;;;2.50;;
69047;SDS011;56119;50.118;8.642;2023-05-07T02:12:16;3.08;;;2.33;;
69047;SDS011;56119;50.118;8.642;2023-05-07T02:14:42;4.20;;;2.72;;
69047;SDS011;56119;50.118;8.642;2023-05-07T02:17:08;6.05;;;2.95;;
69047;SDS011;56119;50.118;8.642;2023-05-07T02:19:34;4.93;;;3.10;;
69047;SDS011;56119;50.118;8.642;2023-05-07T02:22:00;4.72;;;2.70;;
69047;SDS011;56119;50.118;8.642;2023-05-07T02:24:26;3.70;;;2.92;;
69047;SDS011;56119;50.118;8.642;2023-05-07T02:26:52;4.57;;;2.75;;
69047;SDS011;56119;50.118;8.642;2023-05-07T02:29:18;3.80;;;3.00;;
69047;SDS011;56119;50.118;8.642;2023-05-07T02:31:44;4.90;;;2.95;;
69047;SDS011;56119;50.118;8.642;2023-05-07T02:34:10;6.57;;;3.40;;
69047;SDS011;56119;50.118;8.642;2023-05-07T02:36:35;6.88;;;3.55;;
69047;SDS011;56119;50.118;8.642;2023-05-07T02:39:02;5.57;;;3.10;;
69047;SDS011;56119;50.118;8.642;2023-05-07T02:41:28;3.15;;;2.75;;
69047;SDS011;56119;50.118;8.642;2023-05-07T02:43:54;4.50;;;3.35;;
69047;SDS011;56119;50.118;8.642;2023-05-07T02:46:20;4.88;;;2.90;;
69047;SDS011;56119;50.118;8.642;2023-05-07T02:48:46;3.25;;;2.72;;
69047;SDS011;56119;50.118;8.642;2023-05-07T02:51:12;4.25;;;2.58;;
69047;SDS011;56119;50.118;8.642;2023-05-07T02:53:38;4.28;;;2.90;;
69047;SDS011;56119;50.118;8.642;2023-05-07T02:56:04;4.10;;;2.85;;
69047;SDS011;56119;50.118;8.642;2023-05-07T02:58:31;4.30;;;3.10;;
69047;SDS011;56119;50.118;8.642;2023-05-07T03:00:57;4.57;;;3.00;;
69047;SDS011;56119;50.118;8.642;2023-05-07T03:03:23;4.60;;;2.95;;
69047;SDS011;56119;50.118;8.642;2023-05-07T03:05:49;3.78;;;2.90;;
69047;SDS011;56119;50.118;8.642;2023-05-07T03:08:15;4.20;;;2.97;;
69047;SDS011;56119;50.118;8.642;2023-05-07T03:10:41;5.68;;;3.15;;
69047;SDS011;56119;50.118;8.642;2023-05-07T03:13:07;3.85;;;2.70;;
69047;SDS011;56119;50.118;8.642;2023-05-07T03:15:33;4.30;;;2.50;;
69047;SDS011;56119;50.118;8.642;2023-05-07T03:18:00;5.00;;;2.40;;
69047;SDS011;56119;50.118;8.642;2023-05-07T03:20:26;5.75;;;2.80;;
69047;SDS011;56119;50.118;8.642;2023-05-07T03:22:52;3.90;;;3.00;;
69047;SDS011;56119;50.118;8.642;2023-05-07T03:25:18;5.65;;;2.90;;
69047;SDS011;56119;50.118;8.642;2023-05-07T03:27:44;3.55;;;3.08;;
69047;SDS011;56119;50.118;8.642;2023-05-07T03:30:10;5.07;;;2.92;;
69047;SDS011;56119;50.118;8.642;2023-05-07T03:32:36;4.30;;;2.97;;
69047;SDS011;56119;50.118;8.642;2023-05-07T03:35:02;4.05;;;3.20;;
69047;SDS011;56119;50.118;8.642;2023-05-07T03:37:28;3.75;;;3.20;;
69047;SDS011;56119;50.118;8.642;2023-05-07T03:39:54;4.03;;;3.10;;
69047;SDS011;56119;50.118;8.642;2023-05-07T03:42:20;4.55;;;3.00;;
69047;SDS011;56119;50.118;8.642;2023-05-07T03:44:46;5.60;;;3.35;;
69047;SDS011;56119;50.118;8.642;2023-05-07T03:47:12;3.35;;;3.03;;
69047;SDS011;56119;50.118;8.642;2023-05-07T03:49:38;3.35;;;2.92;;
69047;SDS011;56119;50.118;8.642;2023-05-07T03:52:05;4.78;;;3.10;;
69047;SDS011;56119;50.118;8.642;2023-05-07T03:54:31;7.57;;;3.22;;
69047;SDS011;56119;50.118;8.642;2023-05-07T03:56:57;6.40;;;2.90;;
69047;SDS011;56119;50.118;8.642;2023-05-07T03:59:23;3.60;;;2.83;;
69047;SDS011;56119;50.118;8.642;2023-05-07T04:01:49;3.42;;;3.03;;
69047;SDS011;56119;50.118;8.642;2023-05-07T04:04:15;3.25;;;2.63;;
69047;SDS011;56119;50.118;8.642;2023-05-07T04:06:41;4.22;;;3.03;;
69047;SDS011;56119;50.118;8.642;2023-05-07T04:09:07;7.40;;;3.20;;
69047;SDS011;56119;50.118;8.642;2023-05-07T04:11:33;4.95;;;3.10;;
69047;SDS011;56119;50.118;8.642;2023-05-07T04:13:59;4.85;;;3.20;;
69047;SDS011;56119;50.118;8.642;2023-05-07T04:16:25;3.75;;;3.17;;
69047;SDS011;56119;50.118;8.642;2023-05-07T04:18:51;4.10;;;2.88;;
69047;SDS011;56119;50.118;8.642;2023-05-07T04:21:18;3.30;;;2.90;;
69047;SDS011;56119;50.118;8.642;2023-05-07T04:23:45;4.30;;;2.92;;
69047;SDS011;56119;50.118;8.642;2023-05-07T04:26:11;4.72;;;2.72;;
69047;SDS011;56119;50.118;8.642;2023-05-07T04:28:37;5.55;;;3.53;;
69047;SDS011;56119;50.118;8.642;2023-05-07T04:31:04;4.38;;;2.90;;
69047;SDS011;56119;50.118;8.642;2023-05-07T04:33:30;6.88;;;3.25;;
69047;SDS011;56119;50.118;8.642;2023-05-07T04:35:56;4.45;;;3.08;;
69047;SDS011;56119;50.118;8.642;2023-05-07T04:38:22;5.80;;;3.53;;
69047;SDS011;56119;50.118;8.642;2023-05-07T04:40:48;5.43;;;3.17;;
69047;SDS011;56119;50.118;8.642;2023-05-07T04:43:14;4.75;;;3.05;;
69047;SDS011;56119;50.118;8.642;2023-05-07T04:45:41;5.60;;;3.67;;
69047;SDS011;56119;50.118;8.642;2023-05-07T04:48:08;3.53;;;2.88;;
69047;SDS011;56119;50.118;8.642;2023-05-07T04:50:34;6.20;;;3.63;;
69047;SDS011;56119;50.118;8.642;2023-05-07T04:53:00;4.85;;;3.63;;
69047;SDS011;56119;50.118;8.642;2023-05-07T04:55:27;4.20;;;3.58;;
69047;SDS011;56119;50.118;8.642;2023-05-07T04:57:53;6.38;;;3.38;;
69047;SDS011;56119;50.118;8.642;2023-05-07T05:00:19;4.53;;;3.75;;
69047;SDS011;56119;50.118;8.642;2023-05-07T05:02:45;5.78;;;3.50;;
69047;SDS011;56119;50.118;8.642;2023-05-07T05:05:11;6.10;;;3.22;;
69047;SDS011;56119;50.118;8.642;2023-05-07T05:07:37;4.03;;;3.15;;
69047;SDS011;56119;50.118;8.642;2023-05-07T05:10:04;4.95;;;3.83;;
69047;SDS011;56119;50.118;8.642;2023-05-07T05:12:31;4.53;;;3.25;;
69047;SDS011;56119;50.118;8.642;2023-05-07T05:14:57;3.50;;;3.20;;
69047;SDS011;56119;50.118;8.642;2023-05-07T05:17:23;7.47;;;3.58;;
69047;SDS011;56119;50.118;8.642;2023-05-07T05:19:49;6.07;;;3.78;;
69047;SDS011;56119;50.118;8.642;2023-05-07T05:22:15;7.53;;;3.72;;
69047;SDS011;56119;50.118;8.642;2023-05-07T05:24:41;4.68;;;3.80;;
69047;SDS011;56119;50.118;8.642;2023-05-07T05:27:07;6.60;;;3.63;;
69047;SDS011;56119;50.118;8.642;2023-05-07T05:29:33;4.38;;;3.47;;
69047;SDS011;56119;50.118;8.642;2023-05-07T05:31:59;4.68;;;3.70;;
69047;SDS011;56119;50.118;8.642;2023-05-07T05:34:25;5.07;;;3.70;;
69047;SDS011;56119;50.118;8.642;2023-05-07T05:36:52;4.38;;;3.50;;
69047;SDS011;56119;50.118;8.642;2023-05-07T05:39:18;4.40;;;3.50;;
69047;SDS011;56119;50.118;8.642;2023-05-07T05:41:44;5.07;;;3.50;;
69047;SDS011;56119;50.118;8.642;2023-05-07T05:44:10;5.22;;;3.72;;
69047;SDS011;56119;50.118;8.642;2023-05-07T05:46:36;5.20;;;3.63;;
69047;SDS011;56119;50.118;8.642;2023-05-07T05:49:02;5.32;;;3.53;;
69047;SDS011;56119;50.118;8.642;2023-05-07T05:51:28;6.22;;;4.05;;
69047;SDS011;56119;50.118;8.642;2023-05-07T05:53:54;5.10;;;3.70;;
69047;SDS011;56119;50.118;8.642;2023-05-07T05:56:20;6.15;;;4.03;;
69047;SDS011;56119;50.118;8.642;2023-05-07T05:58:46;5.95;;;3.65;;
69047;SDS011;56119;50.118;8.642;2023-05-07T06:01:12;4.57;;;3.60;;
69047;SDS011;56119;50.118;8.642;2023-05-07T06:03:38;4.40;;;3.72;;
69047;SDS011;56119;50.118;8.642;2023-05-07T06:06:04;4.28;;;3.38;;
69047;SDS011;56119;50.118;8.642;2023-05-07T06:08:30;4.90;;;3.83;;
69047;SDS011;56119;50.118;8.642;2023-05-07T06:10:56;4.88;;;3.50;;
69047;SDS011;56119;50.118;8.642;2023-05-07T06:13:22;5.60;;;3.90;;
69047;SDS011;56119;50.118;8.642;2023-05-07T06:15:48;4.63;;;3.60;;
69047;SDS011;56119;50.118;8.642;2023-05-07T06:18:14;4.93;;;3.35;;
69047;SDS011;56119;50.118;8.642;2023-05-07T06:20:40;6.15;;;3.65;;
69047;SDS011;56119;50.118;8.642;2023-05-07T06:23:06;5.55;;;3.53;;
69047;SDS011;56119;50.118;8.642;2023-05-07T06:25:32;3.83;;;3.35;;
69047;SDS011;56119;50.118;8.642;2023-05-07T06:27:58;4.90;;;3.72;;
69047;SDS011;56119;50.118;8.642;2023-05-07T06:30:24;4.65;;;3.35;;
69047;SDS011;56119;50.118;8.642;2023-05-07T06:32:51;4.90;;;3.42;;
69047;SDS011;56119;50.118;8.642;2023-05-07T06:35:17;4.25;;;3.55;;
69047;SDS011;56119;50.118;8.642;2023-05-07T06:37:44;5.22;;;3.67;;
69047;SDS011;56119;50.118;8.642;2023-05-07T06:40:10;4.32;;;3.33;;
69047;SDS011;56119;50.118;8.642;2023-05-07T06:42:36;4.53;;;3.88;;
69047;SDS011;56119;50.118;8.642;2023-05-07T06:45:02;5.03;;;3.70;;
69047;SDS011;56119;50.118;8.642;2023-05-07T06:47:28;5.32;;;3.67;;
69047;SDS011;56119;50.118;8.642;2023-05-07T06:49:54;4.80;;;3.38;;
69047;SDS011;56119;50.118;8.642;2023-05-07T06:52:20;4.05;;;3.65;;
69047;SDS011;56119;50.118;8.642;2023-05-07T06:54:46;4.35;;;3.72;;
69047;SDS011;56119;50.118;8.642;2023-05-07T06:57:12;4.82;;;3.90;;
69047;SDS011;56119;50.118;8.642;2023-05-07T06:59:38;5.47;;;3.80;;
69047;SDS011;56119;50.118;8.642;2023-05-07T07:02:04;4.82;;;4.20;;
69047;SDS011;56119;50.118;8.642;2023-05-07T07:04:30;5.07;;;3.60;;
69047;SDS011;56119;50.118;8.642;2023-05-07T07:06:57;5.30;;;3.97;;
69047;SDS011;56119;50.118;8.642;2023-05-07T07:09:23;5.75;;;4.40;;
69047;SDS011;56119;50.118;8.642;2023-05-07T07:11:49;5.43;;;4.80;;
69047;SDS011;56119;50.118;8.642;2023-05-07T07:14:15;5.13;;;3.90;;
69047;SDS011;56119;50.118;8.642;2023-05-07T07:16:41;5.03;;;3.88;;
69047;SDS011;56119;50.118;8.642;2023-05-07T07:19:07;4.95;;;3.47;;
69047;SDS011;56119;50.118;8.642;2023-05-07T07:21:33;4.82;;;3.88;;
69047;SDS011;56119;50.118;8.642;2023-05-07T07:23:59;4.38;;;3.88;;
69047;SDS011;56119;50.118;8.642;2023-05-07T07:26:25;6.13;;;3.92;;
69047;SDS011;56119;50.118;8.642;2023-05-07T07:28:52;5.05;;;3.88;;
69047;SDS011;56119;50.118;8.642;2023-05-07T07:31:17;5.05;;;3.70;;
69047;SDS011;56119;50.118;8.642;2023-05-07T07:33:43;5.22;;;3.80;;
69047;SDS011;56119;50.118;8.642;2023-05-07T07:36:09;5.63;;;3.97;;
69047;SDS011;56119;50.118;8.642;2023-05-07T07:38:35;4.53;;;3.97;;
69047;SDS011;56119;50.118;8.642;2023-05-07T07:41:01;4.80;;;4.25;;
69047;SDS011;56119;50.118;8.642;2023-05-07T07:43:27;6.50;;;3.80;;
69047;SDS011;56119;50.118;8.642;2023-05-07T07:45:54;3.55;;;3.25;;
69047;SDS011;56119;50.118;8.642;2023-05-07T07:48:20;4.50;;;4.05;;
69047;SDS011;56119;50.118;8.642;2023-05-07T07:50:48;4.05;;;3.58;;
69047;SDS011;56119;50.118;8.642;2023-05-07T07:53:15;6.07;;;3.85;;
69047;SDS011;56119;50.118;8.642;2023-05-07T07:55:41;6.18;;;3.70;;
69047;SDS011;56119;50.118;8.642;2023-05-07T07:58:07;5.60;;;3.60;;
69047;SDS011;56119;50.118;8.642;2023-05-07T08:00:33;5.15;;;3.92;;
69047;SDS011;56119;50.118;8.642;2023-05-07T08:02:59;4.55;;;4.03;;
69047;SDS011;56119;50.118;8.642;2023-05-07T08:05:25;5.25;;;4.07;;
69047;SDS011;56119;50.118;8.642;2023-05-07T08:07:51;6.18;;;4.38;;
69047;SDS011;56119;50.118;8.642;2023-05-07T08:10:18;4.65;;;4.05;;
69047;SDS011;56119;50.118;8.642;2023-05-07T08:12:50;4.38;;;3.97;;
69047;SDS011;56119;50.118;8.642;2023-05-07T08:15:16;6.70;;;4.72;;
69047;SDS011;56119;50.118;8.642;2023-05-07T08:17:43;5.05;;;4.13;;
69047;SDS011;56119;50.118;8.642;2023-05-07T08:20:09;4.03;;;3.72;;
69047;SDS011;56119;50.118;8.642;2023-05-07T08:22:35;4.65;;;4.20;;
69047;SDS011;56119;50.118;8.642;2023-05-07T08:25:02;4.53;;;4.07;;
69047;SDS011;56119;50.118;8.642;2023-05-07T08:27:28;4.53;;;3.83;;
69047;SDS011;56119;50.118;8.642;2023-05-07T08:29:54;5.75;;;4.40;;
69047;SDS011;56119;50.118;8.642;2023-05-07T08:32:20;4.78;;;4.03;;
69047;SDS011;56119;50.118;8.642;2023-05-07T08:34:47;4.47;;;4.07;;
69047;SDS011;56119;50.118;8.642;2023-05-07T08:37:13;5.75;;;4.18;;
69047;SDS011;56119;50.118;8.642;2023-05-07T08:39:39;9.73;;;6.38;;
69047;SDS011;56119;50.118;8.642;2023-05-07T08:42:05;6.38;;;4.40;;
69047;SDS011;56119;50.118;8.642;2023-05-07T08:44:33;4.30;;;3.90;;
69047;SDS011;56119;50.118;8.642;2023-05-07T08:47:00;5.50;;;4.15;;
69047;SDS011;56119;50.118;8.642;2023-05-07T08:49:29;5.70;;;4.30;;
69047;SDS011;56119;50.118;8.642;2023-05-07T08:51:55;13.73;;;7.03;;
69047;SDS011;56119;50.118;8.642;2023-05-07T08:54:21;5.85;;;4.78;;
69047;SDS011;56119;50.118;8.642;2023-05-07T08:56:48;6.30;;;5.13;;
69047;SDS011;56119;50.118;8.642;2023-05-07T08:59:14;6.18;;;4.60;;
69047;SDS011;56119;50.118;8.642;2023-05-07T09:01:40;4.32;;;3.92;;
69047;SDS011;56119;50.118;8.642;2023-05-07T09:04:06;5.20;;;4.22;;
69047;SDS011;56119;50.118;8.642;2023-05-07T09:06:32;5.43;;;4.05;;
69047;SDS011;56119;50.118;8.642;2023-05-07T09:09:01;4.57;;;4.18;;
69047;SDS011;56119;50.118;8.642;2023-05-07T09:11:30;5.32;;;4.70;;
69047;SDS011;56119;50.118;8.642;2023-05-07T09:13:56;4.57;;;4.18;;
69047;SDS011;56119;50.118;8.642;2023-05-07T09:16:24;5.32;;;4.82;;
69047;SDS011;56119;50.118;8.642;2023-05-07T09:18:51;6.97;;;5.22;;
69047;SDS011;56119;50.118;8.642;2023-05-07T09:21:17;5.85;;;5.10;;
69047;SDS011;56119;50.118;8.642;2023-05-07T09:23:43;6.47;;;5.03;;
69047;SDS011;56119;50.118;8.642;2023-05-07T09:26:10;5.25;;;4.40;;
69047;SDS011;56119;50.118;8.642;2023-05-07T09:28:39;4.85;;;3.92;;
69047;SDS011;56119;50.118;8.642;2023-05-07T09:31:06;4.57;;;4.18;;
69047;SDS011;56119;50.118;8.642;2023-05-07T09:33:32;5.40;;;4.72;;
69047;SDS011;56119;50.118;8.642;2023-05-07T09:35:58;5.47;;;4.45;;
69047;SDS011;56119;50.118;8.642;2023-05-07T09:38:24;5.97;;;4.88;;
69047;SDS011;56119;50.118;8.642;2023-05-07T09:41:06;4.90;;;4.47;;
69047;SDS011;56119;50.118;8.642;2023-05-07T09:43:33;5.50;;;5.00;;
69047;SDS011;56119;50.118;8.642;2023-05-07T09:46:03;5.53;;;4.57;;
69047;SDS011;56119;50.118;8.642;2023-05-07T09:48:29;5.18;;;4.15;;
69047;SDS011;56119;50.118;8.642;2023-05-07T09:50:55;4.97;;;4.50;;
69047;SDS011;56119;50.118;8.642;2023-05-07T09:53:25;5.75;;;4.63;;
69047;SDS011;56119;50.118;8.642;2023-05-07T09:55:51;6.60;;;4.75;;
69047;SDS011;56119;50.118;8.642;2023-05-07T09:58:18;6.60;;;4.70;;
69047;SDS011;56119;50.118;8.642;2023-05-07T10:00:44;4.60;;;4.13;;
69047;SDS011;56119;50.118;8.642;2023-05-07T10:03:11;6.20;;;4.93;;
69047;SDS011;56119;50.118;8.642;2023-05-07T10:05:39;5.47;;;4.95;;
69047;SDS011;56119;50.118;8.642;2023-05-07T10:08:05;4.95;;;4.50;;
69047;SDS011;56119;50.118;8.642;2023-05-07T10:10:32;6.07;;;4.85;;
69047;SDS011;56119;50.118;8.642;2023-05-07T10:12:59;5.00;;;4.50;;
69047;SDS011;56119;50.118;8.642;2023-05-07T10:15:26;5.40;;;4.90;;
69047;SDS011;56119;50.118;8.642;2023-05-07T10:17:53;5.47;;;4.82;;
69047;SDS011;56119;50.118;8.642;2023-05-07T10:20:20;5.07;;;4.50;;
69047;SDS011;56119;50.118;8.642;2023-05-07T10:22:47;6.10;;;5.45;;
69047;SDS011;56119;50.118;8.642;2023-05-07T10:25:25;5.30;;;4.80;;
69047;SDS011;56119;50.118;8.642;2023-05-07T10:27:54;4.90;;;4.40;;
69047;SDS011;56119;50.118;8.642;2023-05-07T10:32:48;6.00;;;5.05;;
69047;SDS011;56119;50.118;8.642;2023-05-07T10:35:19;5.78;;;5.15;;
69047;SDS011;56119;50.118;8.642;2023-05-07T10:37:46;7.50;;;5.22;;
69047;SDS011;56119;50.118;8.642;2023-05-07T10:40:12;7.35;;;6.00;;
69047;SDS011;56119;50.118;8.642;2023-05-07T10:42:39;6.25;;;4.40;;
69047;SDS011;56119;50.118;8.642;2023-05-07T10:45:18;5.72;;;4.45;;
69047;SDS011;56119;50.118;8.642;2023-05-07T10:50:29;6.28;;;5.05;;
69047;SDS011;56119;50.118;8.642;2023-05-07T10:55:40;6.57;;;5.07;;
69047;SDS011;56119;50.118;8.642;2023-05-07T11:00:47;4.65;;;4.25;;
69047;SDS011;56119;50.118;8.642;2023-05-07T11:03:14;4.90;;;4.40;;
69047;SDS011;56119;50.118;8.642;2023-05-07T11:05:40;5.32;;;4.82;;
69047;SDS011;56119;50.118;8.642;2023-05-07T11:08:07;5.15;;;4.60;;
69047;SDS011;56119;50.118;8.642;2023-05-07T11:10:49;5.20;;;4.70;;
69047;SDS011;56119;50.118;8.642;2023-05-07T11:13:15;5.10;;;4.63;;
69047;SDS011;56119;50.118;8.642;2023-05-07T11:15:42;4.65;;;4.25;;
69047;SDS011;56119;50.118;8.642;2023-05-07T11:18:09;4.85;;;4.30;;
69047;SDS011;56119;50.118;8.642;2023-05-07T11:23:54;5.38;;;4.82;;
69047;SDS011;56119;50.118;8.642;2023-05-07T11:26:07;5.88;;;4.70;;
69047;SDS011;56119;50.118;8.642;2023-05-07T11:28:37;6.50;;;5.18;;
69047;SDS011;56119;50.118;8.642;2023-05-07T11:31:03;6.57;;;5.13;;
69047;SDS011;56119;50.118;8.642;2023-05-07T11:33:30;5.38;;;4.88;;
69047;SDS011;56119;50.118;8.642;2023-05-07T11:35:56;9.65;;;6.28;;
69047;SDS011;56119;50.118;8.642;2023-05-07T11:38:25;5.75;;;5.05;;
69047;SDS011;56119;50.118;8.642;2023-05-07T11:40:52;5.53;;;4.97;;
69047;SDS011;56119;50.118;8.642;2023-05-07T11:43:18;9.13;;;8.32;;
69047;SDS011;56119;50.118;8.642;2023-05-07T11:45:44;7.60;;;6.90;;
69047;SDS011;56119;50.118;8.642;2023-05-07T11:48:12;5.53;;;4.13;;
69047;SDS011;56119;50.118;8.642;2023-05-07T11:50:51;5.53;;;4.00;;
69047;SDS011;56119;50.118;8.642;2023-05-07T11:53:17;4.45;;;3.33;;
69047;SDS011;56119;50.118;8.642;2023-05-07T11:55:43;3.83;;;3.47;;
69047;SDS011;56119;50.118;8.642;2023-05-07T11:58:10;4.43;;;3.42;;
69047;SDS011;56119;50.118;8.642;2023-05-07T12:00:36;3.80;;;3.33;;
69047;SDS011;56119;50.118;8.642;2023-05-07T12:03:03;3.90;;;3.50;;
69047;SDS011;56119;50.118;8.642;2023-05-07T12:05:29;4.15;;;3.10;;
69047;SDS011;56119;50.118;8.642;2023-05-07T12:07:56;3.70;;;3.13;;
69047;SDS011;56119;50.118;8.642;2023-05-07T12:10:23;4.30;;;3.22;;
69047;SDS011;56119;50.118;8.642;2023-05-07T12:12:49;3.70;;;3.20;;
69047;SDS011;56119;50.118;8.642;2023-05-07T12:15:16;3.53;;;2.97;;
69047;SDS011;56119;50.118;8.642;2023-05-07T12:17:42;4.25;;;2.50;;
69047;SDS011;56119;50.118;8.642;2023-05-07T12:20:08;3.10;;;2.80;;
69047;SDS011;56119;50.118;8.642;2023-05-07T12:22:35;5.78;;;2.90;;
69047;SDS011;56119;50.118;8.642;2023-05-07T12:25:01;4.60;;;3.08;;
69047;SDS011;56119;50.118;8.642;2023-05-07T12:27:27;6.50;;;3.00;;
69047;SDS011;56119;50.118;8.642;2023-05-07T12:29:54;3.20;;;2.80;;
69047;SDS011;56119;50.118;8.642;2023-05-07T12:32:20;3.30;;;2.45;;
69047;SDS011;56119;50.118;8.642;2023-05-07T12:34:47;3.35;;;2.75;;
69047;SDS011;56119;50.118;8.642;2023-05-07T12:37:15;4.00;;;2.22;;
69047;SDS011;56119;50.118;8.642;2023-05-07T12:39:44;5.13;;;2.90;;
69047;SDS011;56119;50.118;8.642;2023-05-07T12:42:14;3.65;;;2.22;;
69047;SDS011;56119;50.118;8.642;2023-05-07T12:44:40;2.28;;;2.00;;
69047;SDS011;56119;50.118;8.642;2023-05-07T12:47:07;2.83;;;2.30;;
69047;SDS011;56119;50.118;8.642;2023-05-07T12:49:34;4.45;;;2.33;;
69047;SDS011;56119;50.118;8.642;2023-05-07T12:52:02;2.70;;;2.50;;
69047;SDS011;56119;50.118;8.642;2023-05-07T12:54:32;2.90;;;2.17;;
69047;SDS011;56119;50.118;8.642;2023-05-07T12:57:05;2.45;;;2.15;;
69047;SDS011;56119;50.118;8.642;2023-05-07T12:59:35;2.88;;;2.40;;
69047;SDS011;56119;50.118;8.642;2023-05-07T13:02:02;4.18;;;2.00;;
69047;SDS011;56119;50.118;8.642;2023-05-07T13:04:28;2.83;;;2.17;;
69047;SDS011;56119;50.118;8.642;2023-05-07T13:06:54;2.85;;;2.28;;
69047;SDS011;56119;50.118;8.642;2023-05-07T13:09:20;3.10;;;2.50;;
69047;SDS011;56119;50.118;8.642;2023-05-07T13:11:46;2.97;;;2.60;;
69047;SDS011;56119;50.118;8.642;2023-05-07T13:14:12;2.75;;;2.10;;
69047;SDS011;56119;50.118;8.642;2023-05-07T13:16:38;3.05;;;2.20;;
69047;SDS011;56119;50.118;8.642;2023-05-07T13:19:04;4.63;;;2.33;;
69047;SDS011;56119;50.118;8.642;2023-05-07T13:21:30;2.33;;;2.13;;
69047;SDS011;56119;50.118;8.642;2023-05-07T13:23:59;2.88;;;2.53;;
69047;SDS011;56119;50.118;8.642;2023-05-07T13:26:25;3.97;;;2.50;;
69047;SDS011;56119;50.118;8.642;2023-05-07T13:28:52;2.88;;;1.90;;
69047;SDS011;56119;50.118;8.642;2023-05-07T13:31:18;3.60;;;3.30;;
69047;SDS011;56119;50.118;8.642;2023-05-07T13:33:45;3.60;;;3.30;;
69047;SDS011;56119;50.118;8.642;2023-05-07T13:36:11;4.20;;;3.80;;
69047;SDS011;56119;50.118;8.642;2023-05-07T13:38:38;5.20;;;4.05;;
69047;SDS011;56119;50.118;8.642;2023-05-07T13:41:04;3.38;;;3.08;;
69047;SDS011;56119;50.118;8.642;2023-05-07T13:43:30;5.32;;;3.55;;
69047;SDS011;56119;50.118;8.642;2023-05-07T13:45:59;5.47;;;3.42;;
69047;SDS011;56119;50.118;8.642;2023-05-07T13:48:26;3.90;;;3.33;;
69047;SDS011;56119;50.118;8.642;2023-05-07T13:50:53;3.90;;;3.50;;
69047;SDS011;56119;50.118;8.642;2023-05-07T13:53:19;3.97;;;3.55;;
69047;SDS011;56119;50.118;8.642;2023-05-07T13:55:45;3.88;;;3.15;;
69047;SDS011;56119;50.118;8.642;2023-05-07T13:58:11;3.53;;;3.22;;
69047;SDS011;56119;50.118;8.642;2023-05-07T14:00:37;4.35;;;3.28;;
69047;SDS011;56119;50.118;8.642;2023-05-07T14:03:04;3.90;;;3.42;;
69047;SDS011;56119;50.118;8.642;2023-05-07T14:05:30;3.55;;;3.10;;
69047;SDS011;56119;50.118;8.642;2023-05-07T14:07:57;3.30;;;3.00;;
69047;SDS011;56119;50.118;8.642;2023-05-07T14:10:23;5.80;;;3.10;;
69047;SDS011;56119;50.118;8.642;2023-05-07T14:12:49;3.60;;;3.05;;
69047;SDS011;56119;50.118;8.642;2023-05-07T14:15:15;4.55;;;2.83;;
69047;SDS011;56119;50.118;8.642;2023-05-07T14:17:41;5.63;;;3.55;;
69047;SDS011;56119;50.118;8.642;2023-05-07T14:20:07;4.57;;;3.17;;
69047;SDS011;56119;50.118;8.642;2023-05-07T14:22:34;3.10;;;2.60;;
69047;SDS011;56119;50.118;8.642;2023-05-07T14:25:00;4.07;;;3.40;;
69047;SDS011;56119;50.118;8.642;2023-05-07T14:27:26;4.10;;;2.95;;
69047;SDS011;56119;50.118;8.642;2023-05-07T14:29:52;4.65;;;3.15;;
69047;SDS011;56119;50.118;8.642;2023-05-07T14:32:18;4.32;;;3.13;;
69047;SDS011;56119;50.118;8.642;2023-05-07T14:34:44;4.22;;;3.53;;
69047;SDS011;56119;50.118;8.642;2023-05-07T14:37:10;4.38;;;3.53;;
69047;SDS011;56119;50.118;8.642;2023-05-07T14:39:37;5.28;;;3.30;;
69047;SDS011;56119;50.118;8.642;2023-05-07T14:42:03;3.65;;;3.20;;
69047;SDS011;56119;50.118;8.642;2023-05-07T14:44:29;3.40;;;2.90;;
69047;SDS011;56119;50.118;8.642;2023-05-07T14:46:56;3.63;;;3.03;;
69047;SDS011;56119;50.118;8.642;2023-05-07T14:49:22;4.30;;;3.88;;
69047;SDS011;56119;50.118;8.642;2023-05-07T14:51:48;4.95;;;3.10;;
69047;SDS011;56119;50.118;8.642;2023-05-07T14:54:15;3.22;;;2.75;;
69047;SDS011;56119;50.118;8.642;2023-05-07T14:56:41;4.00;;;3.05;;